Capitol Logistics 455


KPDX
Portland International Airport
Portland, Oregon, US
KRFD
Chicago/Rockford International Airport
Rockford, Illinois, US

Activity Log

Date Flight Route Aircraft Duration
03/24/2020 CPX455 LAVAA6 PDT DLN RAP J82 FSD J16 MCW DBQ B738 3h 39m
07/04/2019 CPX455 LAVAA6 PDT DLN RAP J82 FSD J16 MCW DBQ B738 3h 31m

Route Details

Aircraft Information
Primary: Boeing 737-800BCF
Backup: Not Available
Route Data
Distance: 1457nm
Sched. Duration: 3h 10m
Avg. Duration: 3h 35m (+25m)
Times Flown: 2
Recm'd Route: LAVAA6 PDT DLN RAP J82 FSD J16 MCW DBQ
Planned Altitude: 37,000ft
Origin Wx: KPDX 291053Z 00000KT 10SM CLR 17/08 A2993 RMK AO2 SLP132 T01720083
Dest. Wx: KRFD 291054Z 20003KT 9SM CLR 15/13 A2995 RMK AO2 SLP141 T01500133 $
Notes:

Financial History
Total Freight: 28,512lbs
Average Load: 14,256lbs/flt
Fuel Used: 33,510lbs
Avg. Fuel Used: 16,755lbs/flt
Fuel Expense: $29,154
Avg. Fuel Expense: $14,577
Avg. Fuel Cost: $0.87/lbs
Total Gross Income: $38,771
Pilot Pay: $328
Total Expenses: $4,291
Total Revenue: $4,120
Average Revenue: $19,385.52